sensor_id;sensor_type;location;lat;lon;timestamp;pressure;altitude;pressure_sealevel;temperature;humidity
55733;BME280;41637;52.364;9.910;2023-02-07T00:01:21;103456.68;;;-2.62;90.96
55733;BME280;41637;52.364;9.910;2023-02-07T00:03:49;103457.61;;;-2.66;90.83
55733;BME280;41637;52.364;9.910;2023-02-07T00:06:21;103465.94;;;-2.67;91.08
55733;BME280;41637;52.364;9.910;2023-02-07T00:08:48;103466.85;;;-2.71;91.32
55733;BME280;41637;52.364;9.910;2023-02-07T00:11:17;103466.77;;;-2.77;91.08
55733;BME280;41637;52.364;9.910;2023-02-07T00:13:47;103464.57;;;-2.81;91.16
55733;BME280;41637;52.364;9.910;2023-02-07T00:16:14;103468.92;;;-2.83;91.22
55733;BME280;41637;52.364;9.910;2023-02-07T00:18:42;103460.98;;;-2.86;91.25
55733;BME280;41637;52.364;9.910;2023-02-07T00:21:12;103449.23;;;-2.88;91.25
55733;BME280;41637;52.364;9.910;2023-02-07T00:23:39;103447.34;;;-2.89;91.46
55733;BME280;41637;52.364;9.910;2023-02-07T00:26:07;103449.98;;;-2.91;91.56
55733;BME280;41637;52.364;9.910;2023-02-07T00:28:34;103449.48;;;-2.94;91.55
55733;BME280;41637;52.364;9.910;2023-02-07T00:31:10;103444.33;;;-2.97;91.46
55733;BME280;41637;52.364;9.910;2023-02-07T00:33:39;103442.08;;;-2.97;91.50
55733;BME280;41637;52.364;9.910;2023-02-07T00:36:08;103439.34;;;-3.00;91.55
55733;BME280;41637;52.364;9.910;2023-02-07T00:38:35;103440.94;;;-3.02;91.46
55733;BME280;41637;52.364;9.910;2023-02-07T00:41:03;103441.99;;;-3.05;91.53
55733;BME280;41637;52.364;9.910;2023-02-07T00:43:30;103444.48;;;-3.10;91.60
55733;BME280;41637;52.364;9.910;2023-02-07T00:45:58;103447.33;;;-3.15;91.68
55733;BME280;41637;52.364;9.910;2023-02-07T00:48:26;103447.88;;;-3.18;91.95
55733;BME280;41637;52.364;9.910;2023-02-07T00:50:53;103448.59;;;-3.20;91.95
55733;BME280;41637;52.364;9.910;2023-02-07T00:53:21;103444.63;;;-3.22;92.01
55733;BME280;41637;52.364;9.910;2023-02-07T00:55:48;103443.09;;;-3.22;92.17
55733;BME280;41637;52.364;9.910;2023-02-07T00:58:15;103451.05;;;-3.22;92.22
55733;BME280;41637;52.364;9.910;2023-02-07T01:00:43;103454.87;;;-3.23;92.32
55733;BME280;41637;52.364;9.910;2023-02-07T01:03:10;103445.88;;;-3.25;92.18
55733;BME280;41637;52.364;9.910;2023-02-07T01:05:37;103443.15;;;-3.29;92.08
55733;BME280;41637;52.364;9.910;2023-02-07T01:08:04;103438.67;;;-3.31;92.26
55733;BME280;41637;52.364;9.910;2023-02-07T01:10:31;103440.27;;;-3.34;92.26
55733;BME280;41637;52.364;9.910;2023-02-07T01:12:58;103443.09;;;-3.38;92.52
55733;BME280;41637;52.364;9.910;2023-02-07T01:15:25;103445.90;;;-3.41;92.32
55733;BME280;41637;52.364;9.910;2023-02-07T01:17:52;103430.52;;;-3.43;92.25
55733;BME280;41637;52.364;9.910;2023-02-07T01:20:19;103427.41;;;-3.45;92.34
55733;BME280;41637;52.364;9.910;2023-02-07T01:22:46;103428.45;;;-3.45;92.44
55733;BME280;41637;52.364;9.910;2023-02-07T01:25:13;103427.61;;;-3.48;92.52
55733;BME280;41637;52.364;9.910;2023-02-07T01:27:41;103425.58;;;-3.51;92.39
55733;BME280;41637;52.364;9.910;2023-02-07T01:30:08;103421.27;;;-3.53;92.34
55733;BME280;41637;52.364;9.910;2023-02-07T01:32:35;103410.73;;;-3.54;92.54
55733;BME280;41637;52.364;9.910;2023-02-07T01:35:02;103401.98;;;-3.59;92.44
55733;BME280;41637;52.364;9.910;2023-02-07T01:37:29;103397.01;;;-3.64;92.95
55733;BME280;41637;52.364;9.910;2023-02-07T01:39:56;103390.63;;;-3.64;93.54
55733;BME280;41637;52.364;9.910;2023-02-07T01:42:25;103389.58;;;-3.63;94.05
55733;BME280;41637;52.364;9.910;2023-02-07T01:47:21;103374.82;;;-3.60;95.15
55733;BME280;41637;52.364;9.910;2023-02-07T01:49:51;103370.84;;;-3.59;95.33
55733;BME280;41637;52.364;9.910;2023-02-07T01:52:23;103368.23;;;-3.58;95.83
55733;BME280;41637;52.364;9.910;2023-02-07T01:54:57;103363.36;;;-3.56;95.51
55733;BME280;41637;52.364;9.910;2023-02-07T01:57:26;103366.10;;;-3.53;95.51
55733;BME280;41637;52.364;9.910;2023-02-07T01:59:55;103369.52;;;-3.50;95.70
55733;BME280;41637;52.364;9.910;2023-02-07T02:02:24;103373.47;;;-3.48;95.95
55733;BME280;41637;52.364;9.910;2023-02-07T02:04:53;103372.04;;;-3.44;96.15
55733;BME280;41637;52.364;9.910;2023-02-07T02:07:22;103377.20;;;-3.41;95.95
55733;BME280;41637;52.364;9.910;2023-02-07T02:09:49;103379.23;;;-3.37;96.19
55733;BME280;41637;52.364;9.910;2023-02-07T02:38:01;103384.02;;;-3.34;95.39
55733;BME280;41637;52.364;9.910;2023-02-07T02:40:38;103376.44;;;-3.35;95.12
55733;BME280;41637;52.364;9.910;2023-02-07T02:43:12;103382.83;;;-3.34;95.18
55733;BME280;41637;52.364;9.910;2023-02-07T02:46:08;103387.11;;;-3.31;95.19
55733;BME280;41637;52.364;9.910;2023-02-07T02:48:37;103387.96;;;-3.30;94.62
55733;BME280;41637;52.364;9.910;2023-02-07T02:51:04;103385.04;;;-3.31;94.37
55733;BME280;41637;52.364;9.910;2023-02-07T02:53:31;103380.18;;;-3.31;94.24
55733;BME280;41637;52.364;9.910;2023-02-07T02:56:09;103378.81;;;-3.32;94.11
55733;BME280;41637;52.364;9.910;2023-02-07T03:04:27;103380.74;;;-3.48;93.51
55733;BME280;41637;52.364;9.910;2023-02-07T03:07:18;103381.46;;;-3.51;93.57
55733;BME280;41637;52.364;9.910;2023-02-07T03:10:31;103373.20;;;-3.54;93.59
55733;BME280;41637;52.364;9.910;2023-02-07T03:13:24;103371.52;;;-3.58;93.49
55733;BME280;41637;52.364;9.910;2023-02-07T03:16:08;103376.53;;;-3.59;93.64
55733;BME280;41637;52.364;9.910;2023-02-07T03:18:46;103382.63;;;-3.62;93.41
55733;BME280;41637;52.364;9.910;2023-02-07T03:21:30;103372.45;;;-3.64;93.52
55733;BME280;41637;52.364;9.910;2023-02-07T03:24:06;103369.53;;;-3.65;93.62
55733;BME280;41637;52.364;9.910;2023-02-07T03:26:35;103374.56;;;-3.67;93.52
55733;BME280;41637;52.364;9.910;2023-02-07T03:29:05;103368.71;;;-3.70;93.50
55733;BME280;41637;52.364;9.910;2023-02-07T03:31:35;103373.74;;;-3.72;93.51
55733;BME280;41637;52.364;9.910;2023-02-07T03:34:08;103369.96;;;-3.74;93.53
55733;BME280;41637;52.364;9.910;2023-02-07T03:36:41;103371.88;;;-3.75;93.53
55733;BME280;41637;52.364;9.910;2023-02-07T03:39:10;103372.07;;;-3.77;93.35
55733;BME280;41637;52.364;9.910;2023-02-07T03:41:43;103370.73;;;-3.81;93.19
55733;BME280;41637;52.364;9.910;2023-02-07T03:44:13;103367.32;;;-3.85;93.25
55733;BME280;41637;52.364;9.910;2023-02-07T03:46:42;103364.39;;;-3.87;93.21
55733;BME280;41637;52.364;9.910;2023-02-07T03:49:12;103359.25;;;-3.91;93.05
55733;BME280;41637;52.364;9.910;2023-02-07T03:51:44;103355.15;;;-3.96;93.04
55733;BME280;41637;52.364;9.910;2023-02-07T03:54:11;103356.38;;;-3.97;93.18
55733;BME280;41637;52.364;9.910;2023-02-07T03:56:38;103356.90;;;-3.99;93.21
55733;BME280;41637;52.364;9.910;2023-02-07T03:59:08;103360.03;;;-4.01;93.19
55733;BME280;41637;52.364;9.910;2023-02-07T04:01:35;103362.66;;;-4.04;93.10
55733;BME280;41637;52.364;9.910;2023-02-07T04:04:08;103361.13;;;-4.06;93.06
55733;BME280;41637;52.364;9.910;2023-02-07T04:06:36;103366.67;;;-4.09;93.09
55733;BME280;41637;52.364;9.910;2023-02-07T04:09:03;103363.77;;;-4.13;93.21
55733;BME280;41637;52.364;9.910;2023-02-07T04:11:30;103369.83;;;-4.12;93.27
55733;BME280;41637;52.364;9.910;2023-02-07T04:13:57;103371.56;;;-4.13;93.33
55733;BME280;41637;52.364;9.910;2023-02-07T04:16:24;103374.52;;;-4.15;93.36
55733;BME280;41637;52.364;9.910;2023-02-07T04:18:51;103376.60;;;-4.17;93.31
55733;BME280;41637;52.364;9.910;2023-02-07T04:21:18;103373.34;;;-4.19;93.29
55733;BME280;41637;52.364;9.910;2023-02-07T04:23:45;103374.56;;;-4.20;93.35
55733;BME280;41637;52.364;9.910;2023-02-07T04:26:12;103381.48;;;-4.21;93.36
55733;BME280;41637;52.364;9.910;2023-02-07T04:28:39;103377.00;;;-4.23;93.39
55733;BME280;41637;52.364;9.910;2023-02-07T04:31:06;103371.15;;;-4.23;93.59
55733;BME280;41637;52.364;9.910;2023-02-07T04:33:33;103375.29;;;-4.25;93.37
55733;BME280;41637;52.364;9.910;2023-02-07T04:36:02;103380.31;;;-4.26;93.37
55733;BME280;41637;52.364;9.910;2023-02-07T04:38:29;103381.04;;;-4.29;93.34
55733;BME280;41637;52.364;9.910;2023-02-07T04:40:59;103376.39;;;-4.33;93.32
55733;BME280;41637;52.364;9.910;2023-02-07T04:43:29;103368.84;;;-4.38;93.23
55733;BME280;41637;52.364;9.910;2023-02-07T04:45:56;103367.67;;;-4.43;93.04
55733;BME280;41637;52.364;9.910;2023-02-07T04:48:23;103368.56;;;-4.47;93.15
55733;BME280;41637;52.364;9.910;2023-02-07T04:50:50;103373.23;;;-4.50;93.25
55733;BME280;41637;52.364;9.910;2023-02-07T04:53:17;103372.91;;;-4.52;93.43
55733;BME280;41637;52.364;9.910;2023-02-07T04:55:49;103368.27;;;-4.53;93.50
55733;BME280;41637;52.364;9.910;2023-02-07T04:58:16;103363.27;;;-4.53;93.68
55733;BME280;41637;52.364;9.910;2023-02-07T05:00:44;103356.38;;;-4.55;93.57
55733;BME280;41637;52.364;9.910;2023-02-07T05:03:14;103360.16;;;-4.56;93.64
55733;BME280;41637;52.364;9.910;2023-02-07T05:05:43;103368.48;;;-4.57;93.70
55733;BME280;41637;52.364;9.910;2023-02-07T05:08:10;103372.29;;;-4.60;93.53
55733;BME280;41637;52.364;9.910;2023-02-07T05:10:38;103367.67;;;-4.66;93.57
55733;BME280;41637;52.364;9.910;2023-02-07T05:13:05;103361.98;;;-4.68;93.58
55733;BME280;41637;52.364;9.910;2023-02-07T05:15:33;103365.98;;;-4.71;93.76
55733;BME280;41637;52.364;9.910;2023-02-07T05:18:00;103368.41;;;-4.74;93.92
55733;BME280;41637;52.364;9.910;2023-02-07T05:20:27;103364.45;;;-4.77;93.96
55733;BME280;41637;52.364;9.910;2023-02-07T05:22:54;103359.46;;;-4.79;93.92
55733;BME280;41637;52.364;9.910;2023-02-07T05:25:21;103357.08;;;-4.82;93.98
55733;BME280;41637;52.364;9.910;2023-02-07T05:27:48;103356.39;;;-4.83;94.14
55733;BME280;41637;52.364;9.910;2023-02-07T05:30:16;103355.00;;;-4.82;94.44
55733;BME280;41637;52.364;9.910;2023-02-07T05:32:43;103354.30;;;-4.81;94.67
55733;BME280;41637;52.364;9.910;2023-02-07T05:35:44;103354.11;;;-4.79;94.84
55733;BME280;41637;52.364;9.910;2023-02-07T05:38:14;103357.20;;;-4.77;95.06
55733;BME280;41637;52.364;9.910;2023-02-07T05:40:42;103364.44;;;-4.74;95.12
55733;BME280;41637;52.364;9.910;2023-02-07T05:43:10;103365.98;;;-4.73;95.30
55733;BME280;41637;52.364;9.910;2023-02-07T05:45:38;103365.11;;;-4.71;95.07
55733;BME280;41637;52.364;9.910;2023-02-07T05:48:05;103365.62;;;-4.70;95.25
55733;BME280;41637;52.364;9.910;2023-02-07T05:50:33;103373.91;;;-4.69;95.31
55733;BME280;41637;52.364;9.910;2023-02-07T05:53:03;103374.93;;;-4.68;95.38
55733;BME280;41637;52.364;9.910;2023-02-07T05:55:30;103377.33;;;-4.66;95.45
55733;BME280;41637;52.364;9.910;2023-02-07T05:57:57;103371.45;;;-4.64;95.43
55733;BME280;41637;52.364;9.910;2023-02-07T06:00:24;103376.63;;;-4.63;95.29
55733;BME280;41637;52.364;9.910;2023-02-07T06:02:51;103379.20;;;-4.64;95.23
55733;BME280;41637;52.364;9.910;2023-02-07T06:05:18;103378.18;;;-4.64;95.02
55733;BME280;41637;52.364;9.910;2023-02-07T06:07:46;103376.11;;;-4.64;94.97
55733;BME280;41637;52.364;9.910;2023-02-07T06:10:13;103376.80;;;-4.64;95.11
55733;BME280;41637;52.364;9.910;2023-02-07T06:12:40;103374.21;;;-4.66;94.77
55733;BME280;41637;52.364;9.910;2023-02-07T06:15:08;103378.21;;;-4.69;94.75
55733;BME280;41637;52.364;9.910;2023-02-07T06:17:35;103379.45;;;-4.73;94.73
55733;BME280;41637;52.364;9.910;2023-02-07T06:20:03;103382.05;;;-4.75;94.72
55733;BME280;41637;52.364;9.910;2023-02-07T06:22:30;103385.86;;;-4.77;94.97
55733;BME280;41637;52.364;9.910;2023-02-07T06:24:57;103385.35;;;-4.78;95.21
55733;BME280;41637;52.364;9.910;2023-02-07T06:27:24;103383.62;;;-4.77;95.39
55733;BME280;41637;52.364;9.910;2023-02-07T06:29:50;103383.95;;;-4.76;95.20
55733;BME280;41637;52.364;9.910;2023-02-07T06:32:18;103392.41;;;-4.75;95.17
55733;BME280;41637;52.364;9.910;2023-02-07T06:34:46;103396.73;;;-4.74;95.29
55733;BME280;41637;52.364;9.910;2023-02-07T06:37:13;103391.88;;;-4.71;95.46
55733;BME280;41637;52.364;9.910;2023-02-07T06:39:41;103394.26;;;-4.66;95.61
55733;BME280;41637;52.364;9.910;2023-02-07T06:42:10;103399.07;;;-4.63;95.32
55733;BME280;41637;52.364;9.910;2023-02-07T06:44:37;103396.46;;;-4.61;95.19
55733;BME280;41637;52.364;9.910;2023-02-07T06:47:05;103402.50;;;-4.58;95.23
55733;BME280;41637;52.364;9.910;2023-02-07T06:49:33;103405.06;;;-4.55;95.19
55733;BME280;41637;52.364;9.910;2023-02-07T06:51:59;103404.86;;;-4.50;95.22
55733;BME280;41637;52.364;9.910;2023-02-07T06:54:26;103412.95;;;-4.47;95.08
55733;BME280;41637;52.364;9.910;2023-02-07T06:56:53;103410.34;;;-4.45;94.97
55733;BME280;41637;52.364;9.910;2023-02-07T06:59:20;103409.82;;;-4.43;94.95
55733;BME280;41637;52.364;9.910;2023-02-07T07:01:48;103409.61;;;-4.39;94.75
55733;BME280;41637;52.364;9.910;2023-02-07T07:04:18;103405.29;;;-4.38;94.68
55733;BME280;41637;52.364;9.910;2023-02-07T07:06:45;103413.73;;;-4.36;94.45
55733;BME280;41637;52.364;9.910;2023-02-07T07:09:12;103420.81;;;-4.35;94.30
55733;BME280;41637;52.364;9.910;2023-02-07T07:11:39;103427.02;;;-4.35;94.24
55733;BME280;41637;52.364;9.910;2023-02-07T07:14:10;103429.09;;;-4.33;94.21
55733;BME280;41637;52.364;9.910;2023-02-07T07:16:37;103431.67;;;-4.32;94.11
55733;BME280;41637;52.364;9.910;2023-02-07T07:19:06;103432.86;;;-4.32;93.98
55733;BME280;41637;52.364;9.910;2023-02-07T07:21:37;103434.08;;;-4.31;93.96
55733;BME280;41637;52.364;9.910;2023-02-07T07:24:04;103431.80;;;-4.27;94.05
55733;BME280;41637;52.364;9.910;2023-02-07T07:26:32;103426.79;;;-4.25;93.89
55733;BME280;41637;52.364;9.910;2023-02-07T07:29:15;103433.84;;;-4.22;94.11
55733;BME280;41637;52.364;9.910;2023-02-07T07:31:43;103439.86;;;-4.17;94.21
55733;BME280;41637;52.364;9.910;2023-02-07T07:34:10;103436.36;;;-4.13;94.03
55733;BME280;41637;52.364;9.910;2023-02-07T07:36:37;103438.23;;;-4.10;93.95
55733;BME280;41637;52.364;9.910;2023-02-07T07:39:04;103439.77;;;-4.05;93.95
55733;BME280;41637;52.364;9.910;2023-02-07T07:41:31;103435.57;;;-4.01;93.88
55733;BME280;41637;52.364;9.910;2023-02-07T07:43:58;103441.27;;;-3.99;93.79
55733;BME280;41637;52.364;9.910;2023-02-07T07:46:25;103441.73;;;-3.94;94.01
55733;BME280;41637;52.364;9.910;2023-02-07T07:48:53;103438.74;;;-3.88;93.95
55733;BME280;41637;52.364;9.910;2023-02-07T07:51:20;103433.84;;;-3.81;94.06
55733;BME280;41637;52.364;9.910;2023-02-07T07:53:47;103430.83;;;-3.74;94.20
55733;BME280;41637;52.364;9.910;2023-02-07T07:56:16;103435.45;;;-3.67;94.06
55733;BME280;41637;52.364;9.910;2023-02-07T07:58:46;103431.38;;;-3.61;94.08
55733;BME280;41637;52.364;9.910;2023-02-07T08:01:14;103430.28;;;-3.54;94.04
55733;BME280;41637;52.364;9.910;2023-02-07T08:03:41;103430.02;;;-3.46;94.15
55733;BME280;41637;52.364;9.910;2023-02-07T08:06:09;103434.60;;;-3.37;94.38
55733;BME280;41637;52.364;9.910;2023-02-07T08:08:36;103438.13;;;-3.28;94.41
55733;BME280;41637;52.364;9.910;2023-02-07T08:11:05;103433.74;;;-3.22;93.89
55733;BME280;41637;52.364;9.910;2023-02-07T08:13:40;103440.11;;;-3.19;93.63
55733;BME280;41637;52.364;9.910;2023-02-07T08:16:07;103437.13;;;-3.17;93.34
55733;BME280;41637;52.364;9.910;2023-02-07T08:18:34;103437.45;;;-3.14;93.21
55733;BME280;41637;52.364;9.910;2023-02-07T08:21:02;103435.46;;;-3.09;93.52
55733;BME280;41637;52.364;9.910;2023-02-07T08:23:29;103437.27;;;-3.00;93.83
55733;BME280;41637;52.364;9.910;2023-02-07T08:25:56;103436.30;;;-2.91;93.83
55733;BME280;41637;52.364;9.910;2023-02-07T08:28:26;103428.59;;;-2.84;93.58
55733;BME280;41637;52.364;9.910;2023-02-07T08:30:58;103423.32;;;-2.79;93.35
55733;BME280;41637;52.364;9.910;2023-02-07T08:33:26;103417.84;;;-2.72;93.51
55733;BME280;41637;52.364;9.910;2023-02-07T08:35:56;103411.51;;;-2.65;93.32
55733;BME280;41637;52.364;9.910;2023-02-07T08:38:53;103417.27;;;-2.56;93.33
55733;BME280;41637;52.364;9.910;2023-02-07T08:41:20;103421.42;;;-2.44;93.46
55733;BME280;41637;52.364;9.910;2023-02-07T08:43:47;103420.56;;;-2.34;93.53
55733;BME280;41637;52.364;9.910;2023-02-07T08:46:17;103416.08;;;-2.23;93.48
55733;BME280;41637;52.364;9.910;2023-02-07T08:48:43;103414.54;;;-2.14;93.32
55733;BME280;41637;52.364;9.910;2023-02-07T08:51:11;103407.77;;;-2.03;93.54
55733;BME280;41637;52.364;9.910;2023-02-07T08:53:38;103409.50;;;-1.93;93.25
55733;BME280;41637;52.364;9.910;2023-02-07T08:56:05;103406.90;;;-1.84;92.89
55733;BME280;41637;52.364;9.910;2023-02-07T08:58:34;103401.35;;;-1.74;92.84
55733;BME280;41637;52.364;9.910;2023-02-07T09:01:01;103405.31;;;-1.63;92.70
55733;BME280;41637;52.364;9.910;2023-02-07T09:03:28;103410.32;;;-1.53;92.57
55733;BME280;41637;52.364;9.910;2023-02-07T09:05:58;103415.98;;;-1.41;92.25
55733;BME280;41637;52.364;9.910;2023-02-07T09:08:25;103418.02;;;-1.29;92.08
55733;BME280;41637;52.364;9.910;2023-02-07T09:10:52;103419.69;;;-1.17;91.78
55733;BME280;41637;52.364;9.910;2023-02-07T09:13:19;103418.39;;;-1.05;91.36
55733;BME280;41637;52.364;9.910;2023-02-07T09:15:52;103418.87;;;-0.96;90.82
55733;BME280;41637;52.364;9.910;2023-02-07T09:18:20;103424.23;;;-0.86;90.50
55733;BME280;41637;52.364;9.910;2023-02-07T09:20:47;103423.88;;;-0.77;89.92
55733;BME280;41637;52.364;9.910;2023-02-07T09:23:13;103424.59;;;-0.71;88.99
55733;BME280;41637;52.364;9.910;2023-02-07T09:25:43;103418.23;;;-0.67;88.34
55733;BME280;41637;52.364;9.910;2023-02-07T09:28:10;103416.24;;;-0.63;87.71
55733;BME280;41637;52.364;9.910;2023-02-07T09:30:39;103419.64;;;-0.59;86.81
55733;BME280;41637;52.364;9.910;2023-02-07T09:33:08;103421.94;;;-0.53;86.70
55733;BME280;41637;52.364;9.910;2023-02-07T09:35:36;103423.27;;;-0.44;86.99
55733;BME280;41637;52.364;9.910;2023-02-07T09:38:04;103419.53;;;-0.32;86.51
55733;BME280;41637;52.364;9.910;2023-02-07T09:40:32;103418.80;;;-0.24;85.74
55733;BME280;41637;52.364;9.910;2023-02-07T09:45:46;103415.30;;;-0.02;85.82
55733;BME280;41637;52.364;9.910;2023-02-07T09:48:18;103413.80;;;0.09;85.48
55733;BME280;41637;52.364;9.910;2023-02-07T09:50:53;103416.27;;;0.21;85.24
55733;BME280;41637;52.364;9.910;2023-02-07T09:53:28;103416.10;;;0.33;84.80
55733;BME280;41637;52.364;9.910;2023-02-07T09:56:00;103417.54;;;0.45;83.92
55733;BME280;41637;52.364;9.910;2023-02-07T10:01:26;103413.45;;;0.55;82.47
55733;BME280;41637;52.364;9.910;2023-02-07T10:06:49;103413.43;;;0.80;82.60
55733;BME280;41637;52.364;9.910;2023-02-07T10:09:24;103411.70;;;0.86;80.96
55733;BME280;41637;52.364;9.910;2023-02-07T10:11:59;103409.46;;;0.91;80.69
55733;BME280;41637;52.364;9.910;2023-02-07T10:14:49;103408.48;;;1.00;80.02
55733;BME280;41637;52.364;9.910;2023-02-07T10:17:48;103401.75;;;1.09;80.06
55733;BME280;41637;52.364;9.910;2023-02-07T10:26:03;103418.52;;;1.37;79.51
55733;BME280;41637;52.364;9.910;2023-02-07T10:31:23;103422.59;;;1.46;78.95
55733;BME280;41637;52.364;9.910;2023-02-07T10:33:59;103421.85;;;1.53;78.82
55733;BME280;41637;52.364;9.910;2023-02-07T10:36:32;103422.02;;;1.59;78.29
55733;BME280;41637;52.364;9.910;2023-02-07T10:39:06;103426.51;;;1.65;78.12
55733;BME280;41637;52.364;9.910;2023-02-07T10:41:40;103433.46;;;1.72;77.41
55733;BME280;41637;52.364;9.910;2023-02-07T10:44:17;103438.34;;;1.77;77.30
55733;BME280;41637;52.364;9.910;2023-02-07T10:46:49;103441.42;;;1.85;76.43
55733;BME280;41637;52.364;9.910;2023-02-07T10:49:24;103438.36;;;1.92;76.07
55733;BME280;41637;52.364;9.910;2023-02-07T10:51:55;103439.58;;;1.98;75.64
55733;BME280;41637;52.364;9.910;2023-02-07T10:54:23;103439.27;;;2.12;76.02
55733;BME280;41637;52.364;9.910;2023-02-07T10:56:55;103436.41;;;2.19;75.05
55733;BME280;41637;52.364;9.910;2023-02-07T11:01:59;103429.80;;;2.33;73.60
55733;BME280;41637;52.364;9.910;2023-02-07T11:04:38;103430.72;;;2.37;73.23
55733;BME280;41637;52.364;9.910;2023-02-07T11:07:14;103431.33;;;2.40;71.55
55733;BME280;41637;52.364;9.910;2023-02-07T11:09:41;103428.11;;;2.41;71.43
55733;BME280;41637;52.364;9.910;2023-02-07T11:14:58;103425.63;;;2.48;70.76
55733;BME280;41637;52.364;9.910;2023-02-07T11:17:27;103417.04;;;2.49;69.48
55733;BME280;41637;52.364;9.910;2023-02-07T11:19:55;103418.99;;;2.53;69.93
55733;BME280;41637;52.364;9.910;2023-02-07T11:22:22;103414.00;;;2.60;70.00
55733;BME280;41637;52.364;9.910;2023-02-07T11:25:04;103411.20;;;2.65;70.10
55733;BME280;41637;52.364;9.910;2023-02-07T11:27:39;103408.30;;;2.78;71.31
55733;BME280;41637;52.364;9.910;2023-02-07T11:30:18;103410.38;;;2.92;70.50
55733;BME280;41637;52.364;9.910;2023-02-07T11:32:55;103410.53;;;3.11;68.72
55733;BME280;41637;52.364;9.910;2023-02-07T11:35:23;103409.25;;;3.31;68.59
55733;BME280;41637;52.364;9.910;2023-02-07T11:38:02;103406.95;;;3.48;68.51
55733;BME280;41637;52.364;9.910;2023-02-07T11:40:50;103401.91;;;3.61;66.56
55733;BME280;41637;52.364;9.910;2023-02-07T11:43:18;103397.51;;;3.65;66.38
55733;BME280;41637;52.364;9.910;2023-02-07T11:45:49;103397.25;;;3.77;65.88
55733;BME280;41637;52.364;9.910;2023-02-07T11:48:27;103396.54;;;3.93;65.68
55733;BME280;41637;52.364;9.910;2023-02-07T11:50:57;103395.04;;;4.16;65.18
55733;BME280;41637;52.364;9.910;2023-02-07T11:53:36;103390.29;;;4.41;63.95
55733;BME280;41637;52.364;9.910;2023-02-07T11:56:04;103387.83;;;4.72;63.27
55733;BME280;41637;52.364;9.910;2023-02-07T11:58:34;103386.35;;;5.15;63.18
55733;BME280;41637;52.364;9.910;2023-02-07T12:01:04;103387.69;;;5.67;61.31
55733;BME280;41637;52.364;9.910;2023-02-07T12:03:42;103384.52;;;6.09;58.83
55733;BME280;41637;52.364;9.910;2023-02-07T12:06:15;103379.80;;;6.52;57.79
55733;BME280;41637;52.364;9.910;2023-02-07T12:08:44;103380.30;;;6.85;56.05
55733;BME280;41637;52.364;9.910;2023-02-07T12:11:16;103377.17;;;7.32;56.47
55733;BME280;41637;52.364;9.910;2023-02-07T12:14:16;103374.36;;;7.89;54.69
55733;BME280;41637;52.364;9.910;2023-02-07T12:16:46;103365.36;;;8.56;52.44
55733;BME280;41637;52.364;9.910;2023-02-07T12:19:22;103360.23;;;9.12;51.60
55733;BME280;41637;52.364;9.910;2023-02-07T12:22:01;103364.52;;;9.75;51.50
55733;BME280;41637;52.364;9.910;2023-02-07T12:24:48;103350.25;;;10.31;48.68
55733;BME280;41637;52.364;9.910;2023-02-07T12:27:18;103345.31;;;10.81;46.26
55733;BME280;41637;52.364;9.910;2023-02-07T12:29:50;103343.48;;;11.06;44.72
55733;BME280;41637;52.364;9.910;2023-02-07T12:35:05;103337.83;;;11.74;43.26
55733;BME280;41637;52.364;9.910;2023-02-07T12:37:48;103338.48;;;12.10;42.85
55733;BME280;41637;52.364;9.910;2023-02-07T12:40:33;103337.21;;;12.42;41.86
55733;BME280;41637;52.364;9.910;2023-02-07T12:43:13;103338.20;;;12.94;40.63
55733;BME280;41637;52.364;9.910;2023-02-07T12:54:34;103338.38;;;14.99;34.13
55733;BME280;41637;52.364;9.910;2023-02-07T12:57:11;103339.27;;;15.74;34.23
55733;BME280;41637;52.364;9.910;2023-02-07T13:00:03;103337.20;;;16.47;33.97
55733;BME280;41637;52.364;9.910;2023-02-07T13:02:37;103333.70;;;16.97;31.85
55733;BME280;41637;52.364;9.910;2023-02-07T13:10:37;103329.23;;;17.89;30.40
55733;BME280;41637;52.364;9.910;2023-02-07T13:13:34;103329.80;;;18.16;29.22
55733;BME280;41637;52.364;9.910;2023-02-07T13:16:20;103329.52;;;18.60;29.43
55733;BME280;41637;52.364;9.910;2023-02-07T13:19:11;103330.09;;;18.95;28.07
55733;BME280;41637;52.364;9.910;2023-02-07T13:21:53;103329.86;;;19.23;27.87
55733;BME280;41637;52.364;9.910;2023-02-07T13:24:25;103329.77;;;19.42;27.29
55733;BME280;41637;52.364;9.910;2023-02-07T13:26:58;103333.14;;;19.69;26.90
55733;BME280;41637;52.364;9.910;2023-02-07T13:29:28;103331.46;;;20.00;26.47
55733;BME280;41637;52.364;9.910;2023-02-07T13:32:00;103331.45;;;20.46;25.85
55733;BME280;41637;52.364;9.910;2023-02-07T13:34:31;103328.07;;;20.84;24.91
55733;BME280;41637;52.364;9.910;2023-02-07T13:37:01;103327.56;;;21.10;24.72
55733;BME280;41637;52.364;9.910;2023-02-07T13:39:59;103327.88;;;21.26;24.02
55733;BME280;41637;52.364;9.910;2023-02-07T13:42:42;103319.50;;;21.30;23.49
55733;BME280;41637;52.364;9.910;2023-02-07T13:45:44;103320.31;;;21.35;23.40
55733;BME280;41637;52.364;9.910;2023-02-07T13:48:32;103316.72;;;21.41;22.55
55733;BME280;41637;52.364;9.910;2023-02-07T13:51:16;103313.73;;;21.44;22.96
55733;BME280;41637;52.364;9.910;2023-02-07T13:53:59;103319.39;;;21.49;22.76
55733;BME280;41637;52.364;9.910;2023-02-07T13:56:30;103323.77;;;21.45;22.49
55733;BME280;41637;52.364;9.910;2023-02-07T13:59:35;103316.54;;;21.50;22.80
55733;BME280;41637;52.364;9.910;2023-02-07T14:02:20;103318.33;;;21.34;22.31
55733;BME280;41637;52.364;9.910;2023-02-07T14:07:19;103314.63;;;20.45;22.95
55733;BME280;41637;52.364;9.910;2023-02-07T14:09:49;103313.24;;;20.02;22.97
55733;BME280;41637;52.364;9.910;2023-02-07T14:12:42;103314.57;;;19.64;23.36
55733;BME280;41637;52.364;9.910;2023-02-07T14:18:29;103317.25;;;19.27;23.70
55733;BME280;41637;52.364;9.910;2023-02-07T14:21:04;103320.90;;;19.30;23.71
55733;BME280;41637;52.364;9.910;2023-02-07T14:24:01;103324.43;;;19.59;23.47
55733;BME280;41637;52.364;9.910;2023-02-07T14:32:41;103329.86;;;20.14;22.32
55733;BME280;41637;52.364;9.910;2023-02-07T14:38:38;103335.89;;;20.07;22.29
55733;BME280;41637;52.364;9.910;2023-02-07T14:45:58;103327.84;;;19.82;22.86
55733;BME280;41637;52.364;9.910;2023-02-07T14:48:38;103326.36;;;19.68;22.71